Fairlawn, Virginia
Current Conditions -  °F | °C
As of 6:15 AM on Wednesday 26 Nov 2014 (Local Time) from KPSK Reporting Station
Light Snow Light Snow  
Wind Chill: 36°   Ceiling: 2000
Heat Index: 36°   Visibility: 3mi
Dew Point: 36°   Wind: 3mph
Humidity: 99%   Direction: 70°ENE
Pressure: 30.01"   Gusts: NA
Location:  37.1746°N, 80.6425°W
Report Text: KPSK 261115Z AUTO 07003KT 3SM -SN SCT007 SCT014 OVC020 02/02 A3001 RMK AO2 P0002 T00210020
Loading
Personal Weather Stations






























Interactive Weather Map New forecast layout! Learn more

10-Day Weather Forecast

Advertisements
Track Severe Weather on mobile